Pays
Station

 

Conditions  météo  pour  Ramona, Ramona Airport  -  Etats-Unis    Etats-Unis

  
31 °C
    
 
 

METAR pour Ramona, Ramona Airport :

KRNM 161953Z 25009G16KT 10SM CLR 31/18 A3002 RMK AO2 SLP149 CB DSNT N TO SE T03060178

 

Voici le bulletin pour Ramona, Ramona Airport - Etats-Unis.
 
Le bulletin a été fait il y a 11 minutes, à 19:53 UTC .
Le vent soufflait à la vitesse de 4.6 mètres par seconde avec des rafales jusqu'à 8.2 mètres par seconde de Ouest/Sud-ouest (250°).
 
La température était de 31 °C, avec un point de rosée à 18 °C.
La température ressentie était de 32 °C.
 
La pression atmosphérique était de 1017 hPa.
L'humidité relative était de 45.9%.
 
Le ciel était clair.
 
La visibilité globale était de 16.1 kilomètres.
 

 
 
 

Pays :   A   B   C   D   E   F   G   H   I   J   K   L   M   N   O   P   Q   R   S   T   U   V   W   Y   Z

 

Partenaires :  Info Météo avec Met'info
Météo Marine avec MeteoMarine.net
Infos Site  |  Infos Légales  |  Crédits  |  Confidentialité
Contactez-nous  |  Ajouter aux favoris
© 2013-2018 METAR - Tous droits réservés